Detall de PIREP

Printer-friendly versionPDF version

[2013/03/24 07:39:00]
Flight IATA:CT0001
Pilot Number:041
Company ICAO:CAT
Aircraft Type:A320/E
PAX:101
Departing Airport: LEGE
Destination Airport: LELC
Alternate Airport:LEMG
Online: VATSIM
Route:DCT MAMUK H110 SEROX A34 ALT DCT
Flight Level:F190
No Slew and time accel
No pause
Crash detect
Detect pilot in Cockpit between each 30 and 45 minutes
07:39 Zero fuel Weight: 134051 Lbs, Fuel Weight: 12312 Lbs
07:39 VATSIM:LEGE 240730Z VRB01KT 9999 1500S VCFG FEW070 09/09 Q1000
07:39 VATSIM:LELC 240700Z 25009KT 200V290 CAVOK 14/06 Q1002 NOSIG
07:39 VOICE CATALONIAN
07:45 Parking Brakes off
07:54 Take-off
07:54 Take off Weight: 145427 Lbs
07:54 Wind: 072º @ 001 Knots Heading: 197º
07:54 POS N41º 53´ 32´´ E002º 45´ 26´´
07:54 Gear Up: 185 Knots
07:54 Flaps:3 at 185 Knots
07:54 Flaps:2 at 194 Knots
07:54 Flaps:1 at 172 Knots
07:55 Flaps:0 at 191 Knots
08:01 TOC
08:01Fuel Weight: 9176 Lb
08:09 Wind:231º@006 Knots Heading: 258º Ground Speed: 377 Knots Altitude 18602 ft
08:24 Wind:217º@018 Knots Heading: 197º Ground Speed: 366 Knots Altitude 18658 ft
08:39 Wind:234º@010 Knots Heading: 184º Ground Speed: 376 Knots Altitude 18641 ft
08:41 TOD
08:41 Fuel Weight: 3805 Lb
08:53 Flaps:1 at 204 Knots
08:54 Wind:288º@012 Knots Heading: 256º Ground Speed: 186 Knots Altitude 2096 ft
08:55 Flaps:2 at 192 Knots
08:56 Flaps:3 at 197 Knots
08:57 Gear Down: 179 Knots
08:57 Flaps:4 at 159 Knots
08:59 TouchDown:Rate -416 ft/min Speed: 127 Knots
08:59 VATSIM:LELC 240800Z 28013G23KT 240V320 CAVOK 14/06 Q1003 NOSIG
08:59 Land
08:59 Wind:273º@012 Knots
08:59 Heading: 227º
08:59 Flight Duration: 01:05
08:59 Landing Weight: 136437 Lbs
08:59 POS N37º 46´ 13´´ W000º 49´ 05´´
09:02 Parking brakes on
09:02 Block to Block Duration: 01:17
09:02Final Fuel: 2123 Lbls
09:02 Spent Fuel: 10189 Lbls
09:02 Flight Length: 355 NM
09:02 TOD Land Length: 69 NM

Exportar CSV

Powered by Drupal - Modified by Danger4k